createdAt,value
2022-10-21T00:01:34.237Z,64.37
2022-10-21T00:06:36.910Z,64.74
2022-10-21T00:11:39.627Z,64.73
2022-10-21T00:16:43.630Z,64.99
2022-10-21T00:21:46.283Z,65.14
2022-10-21T00:26:50.704Z,65.16
2022-10-21T00:31:55.373Z,65.47
2022-10-21T00:36:58.129Z,65.84
2022-10-21T00:42:00.786Z,65.79
2022-10-21T00:47:08.552Z,66.21
2022-10-21T00:52:15.731Z,66.58
2022-10-21T00:57:21.269Z,66.90
2022-10-21T01:02:25.562Z,67.43
2022-10-21T01:07:28.582Z,67.85
2022-10-21T01:12:43.289Z,68.13
2022-10-21T01:17:55.968Z,68.37
2022-10-21T01:23:24.104Z,68.55
2022-10-21T01:28:41.874Z,68.94
2022-10-21T01:33:50.714Z,69.08
2022-10-21T01:39:04.354Z,69.57
2022-10-21T01:44:17.689Z,69.67
2022-10-21T01:49:29.782Z,69.94
2022-10-21T01:54:36.684Z,70.21
2022-10-21T01:59:42.276Z,70.54
2022-10-21T02:04:48.732Z,70.74
2022-10-21T02:09:51.339Z,70.93
2022-10-21T02:14:56.290Z,71.11
2022-10-21T02:20:04.351Z,71.45
2022-10-21T02:25:11.959Z,71.59
2022-10-21T02:30:15.153Z,71.93
2022-10-21T02:35:30.130Z,72.09
2022-10-21T02:40:37.549Z,72.28
2022-10-21T02:45:40.874Z,72.57
2022-10-21T02:50:45.124Z,72.81
2022-10-21T02:55:47.803Z,73.10
2022-10-21T03:00:50.439Z,73.21
2022-10-21T03:05:54.479Z,73.37
2022-10-21T03:10:57.178Z,73.57
2022-10-21T03:16:00.146Z,73.59
2022-10-21T03:21:04.193Z,73.63
2022-10-21T03:26:07.065Z,73.80
2022-10-21T03:31:09.697Z,73.57
2022-10-21T03:36:13.711Z,73.70
2022-10-21T03:41:16.412Z,73.70
2022-10-21T03:46:19.078Z,73.60
2022-10-21T03:51:23.113Z,73.46
2022-10-21T03:56:25.944Z,73.32
2022-10-21T04:01:29.409Z,73.26
2022-10-21T04:06:33.611Z,73.20
2022-10-21T04:11:36.454Z,73.21
2022-10-21T04:16:39.158Z,73.18
2022-10-21T04:21:43.418Z,73.07
2022-10-21T04:26:46.057Z,72.91
2022-10-21T04:31:48.755Z,73.03
2022-10-21T04:36:52.750Z,72.86
2022-10-21T04:41:55.993Z,72.98
2022-10-21T04:46:58.602Z,72.81
2022-10-21T04:52:02.627Z,72.84
2022-10-21T04:57:05.323Z,73.12
2022-10-21T05:02:08.022Z,73.05
2022-10-21T05:07:12.323Z,73.14
2022-10-21T05:12:15.002Z,73.16
2022-10-21T05:17:17.626Z,73.26
2022-10-21T05:22:21.667Z,73.24
2022-10-21T05:27:24.316Z,73.32
2022-10-21T05:32:27.127Z,73.24
2022-10-21T05:37:31.165Z,73.36
2022-10-21T05:42:33.945Z,73.46
2022-10-21T05:47:36.653Z,73.30
2022-10-21T05:52:41.201Z,73.41
2022-10-21T05:57:44.180Z,73.57
2022-10-21T06:02:46.931Z,73.47
2022-10-21T06:07:50.976Z,73.51
2022-10-21T06:12:53.642Z,73.70
2022-10-21T06:17:56.528Z,73.72
2022-10-21T06:23:01.507Z,73.73
2022-10-21T06:28:04.885Z,73.83
2022-10-21T06:33:07.621Z,73.75
2022-10-21T06:38:11.647Z,73.84
2022-10-21T06:43:15.197Z,73.82
2022-10-21T06:48:17.965Z,73.70
2022-10-21T06:53:22.315Z,73.66
2022-10-21T06:58:24.906Z,73.46
2022-10-21T07:03:27.529Z,73.54
2022-10-21T07:08:46.574Z,73.58
2022-10-21T07:13:50.059Z,68.14
2022-10-21T07:18:53.535Z,61.08
2022-10-21T07:23:59.222Z,60.06
2022-10-21T07:29:03.250Z,59.36
2022-10-21T07:34:08.305Z,62.26
2022-10-21T07:39:14.767Z,63.10
2022-10-21T07:44:18.346Z,63.28
2022-10-21T07:49:22.820Z,63.65
2022-10-21T07:54:26.853Z,64.30
2022-10-21T07:59:29.738Z,65.01
2022-10-21T08:04:33.374Z,65.24
2022-10-21T08:09:37.395Z,65.54
2022-10-21T08:14:40.874Z,65.32
2022-10-21T08:19:43.943Z,65.40
2022-10-21T08:24:48.078Z,65.54
2022-10-21T08:29:50.727Z,65.57
2022-10-21T08:34:53.593Z,65.70
2022-10-21T08:39:57.710Z,65.54
2022-10-21T08:45:02.869Z,65.32
2022-10-21T08:50:11.832Z,65.61
2022-10-21T08:55:20.352Z,65.58
2022-10-21T09:00:25.354Z,65.50
2022-10-21T09:05:43.025Z,65.43
2022-10-21T09:11:01.319Z,65.26
2022-10-21T09:16:13.645Z,65.50
2022-10-21T09:21:24.369Z,65.57
2022-10-21T09:26:42.995Z,65.28
2022-10-21T09:31:48.769Z,65.64
2022-10-21T09:36:57.710Z,65.85
2022-10-21T09:42:06.620Z,66.51
2022-10-21T09:47:21.810Z,66.79
2022-10-21T09:52:31.966Z,66.77
2022-10-21T09:57:46.016Z,66.94
2022-10-21T10:02:49.849Z,67.10
2022-10-21T10:07:52.484Z,67.21
2022-10-21T10:12:58.614Z,67.24
2022-10-21T10:18:02.277Z,67.31
2022-10-21T10:23:11.148Z,67.60
2022-10-21T10:28:24.530Z,67.72
2022-10-21T10:33:30.512Z,69.32
2022-10-21T10:38:36.233Z,69.45
2022-10-21T10:43:46.080Z,69.47
2022-10-21T10:48:52.513Z,69.38
2022-10-21T10:54:18.349Z,69.38
2022-10-21T10:59:35.040Z,69.16
2022-10-21T11:04:40.908Z,69.13
2022-10-21T11:09:43.834Z,68.79
2022-10-21T11:14:52.701Z,69.15
2022-10-21T11:20:01.775Z,69.22
2022-10-21T11:25:19.616Z,69.18
2022-10-21T11:30:29.135Z,69.09
2022-10-21T11:40:42.923Z,68.87
2022-10-21T11:45:59.249Z,68.95
2022-10-21T11:51:14.243Z,69.19
2022-10-21T11:56:28.268Z,69.39
2022-10-21T12:01:42.418Z,69.45
2022-10-21T12:06:58.080Z,69.36
2022-10-21T12:12:06.410Z,69.72
2022-10-21T12:17:15.419Z,69.82
2022-10-21T12:22:18.609Z,69.79
2022-10-21T12:27:30.891Z,69.96
2022-10-21T12:32:44.532Z,70.01
2022-10-21T12:38:06.288Z,70.16
2022-10-21T12:43:22.410Z,70.09
2022-10-21T12:48:33.857Z,70.24
2022-10-21T12:53:43.294Z,70.24
2022-10-21T12:58:46.725Z,70.59
2022-10-21T13:03:55.099Z,70.56
2022-10-21T13:08:57.974Z,70.72
2022-10-21T13:14:26.752Z,70.76
2022-10-21T13:19:35.127Z,71.03
2022-10-21T13:24:38.302Z,71.34
2022-10-21T13:29:48.063Z,71.36
2022-10-21T13:35:32.061Z,71.50
2022-10-21T13:40:47.428Z,71.59
2022-10-21T13:45:52.816Z,71.58
2022-10-21T13:50:55.735Z,71.39
2022-10-21T13:56:01.749Z,71.51
2022-10-21T14:01:13.160Z,71.22
2022-10-21T14:06:26.175Z,71.05
2022-10-21T14:11:36.565Z,70.47
2022-10-21T14:16:44.211Z,70.30
2022-10-21T14:21:50.656Z,70.27
2022-10-21T14:26:55.546Z,69.93
2022-10-21T14:31:58.808Z,69.81
2022-10-21T14:37:09.213Z,69.66
2022-10-21T14:42:19.986Z,69.70
2022-10-21T14:47:25.624Z,69.52
2022-10-21T14:52:35.004Z,69.49
2022-10-21T14:57:43.314Z,69.51
2022-10-21T15:02:46.590Z,69.33
2022-10-21T15:07:49.332Z,69.17
2022-10-21T15:12:53.693Z,69.30
2022-10-21T15:18:02.875Z,69.45
2022-10-21T15:23:19.355Z,69.21
2022-10-21T15:28:26.166Z,69.15
2022-10-21T15:33:29.058Z,69.00
2022-10-21T15:38:32.121Z,68.74
2022-10-21T15:43:36.173Z,69.11
2022-10-21T15:48:38.974Z,68.90
2022-10-21T15:53:44.480Z,68.91
2022-10-21T15:58:48.741Z,68.69
2022-10-21T16:03:51.350Z,68.53
2022-10-21T16:08:54.045Z,68.26
2022-10-21T16:13:58.169Z,68.06
2022-10-21T16:19:00.947Z,67.89
2022-10-21T16:24:03.576Z,67.93
2022-10-21T16:29:07.938Z,67.83
2022-10-21T16:34:11.720Z,67.76
2022-10-21T16:39:16.693Z,67.65
2022-10-21T16:44:20.833Z,67.94
2022-10-21T16:49:25.862Z,67.95
2022-10-21T16:54:28.561Z,67.81
2022-10-21T16:59:32.653Z,67.83
2022-10-21T17:04:35.277Z,67.70
2022-10-21T17:09:38.231Z,67.58
2022-10-21T17:14:42.349Z,67.54
2022-10-21T17:19:45.014Z,67.78
2022-10-21T17:24:48.983Z,67.56
2022-10-21T17:29:52.966Z,67.56
2022-10-21T17:34:55.710Z,67.56
2022-10-21T17:39:58.339Z,67.62
2022-10-21T17:45:03.811Z,67.51
2022-10-21T17:50:08.170Z,67.37
2022-10-21T17:55:11.058Z,67.21
2022-10-21T18:00:15.687Z,67.32
2022-10-21T18:05:18.579Z,67.37
2022-10-21T18:10:21.307Z,67.36
2022-10-21T18:15:27.722Z,67.26
2022-10-21T18:20:30.453Z,67.13
2022-10-21T18:25:35.477Z,67.39
2022-10-21T18:30:43.988Z,67.29
2022-10-21T18:35:46.634Z,67.05
2022-10-21T18:40:56.300Z,67.26
2022-10-21T18:46:06.435Z,67.30
2022-10-21T18:51:11.437Z,67.07
2022-10-21T18:56:15.701Z,67.24
2022-10-21T19:01:21.002Z,67.09
2022-10-21T19:06:39.142Z,67.25
2022-10-21T19:11:42.487Z,67.16
2022-10-21T19:16:48.259Z,67.12
2022-10-21T19:21:50.921Z,67.20
2022-10-21T19:26:54.792Z,67.23
2022-10-21T19:31:58.870Z,67.21
2022-10-21T19:37:01.555Z,67.20
2022-10-21T19:42:04.170Z,66.88
2022-10-21T19:47:08.140Z,66.92
2022-10-21T19:52:10.848Z,66.73
2022-10-21T19:57:13.465Z,66.78
2022-10-21T20:02:17.449Z,66.99
2022-10-21T20:07:20.108Z,66.87
2022-10-21T20:12:22.811Z,66.90
2022-10-21T20:17:26.935Z,66.74
2022-10-21T20:22:29.571Z,66.93
2022-10-21T20:27:32.544Z,66.82
2022-10-21T20:32:36.506Z,66.95
2022-10-21T20:37:40.645Z,66.64
2022-10-21T20:42:47.697Z,66.89
2022-10-21T20:47:54.203Z,66.58
2022-10-21T20:52:56.976Z,66.99
2022-10-21T20:57:59.634Z,66.73
2022-10-21T21:03:03.689Z,67.19
2022-10-21T21:08:07.066Z,66.86
2022-10-21T21:13:09.698Z,66.80
2022-10-21T21:18:14.155Z,66.64
2022-10-21T21:23:16.903Z,66.74
2022-10-21T21:28:19.780Z,67.04
2022-10-21T21:33:23.914Z,67.04
2022-10-21T21:38:28.510Z,66.76
2022-10-21T21:43:32.058Z,66.78
2022-10-21T21:48:36.277Z,66.70
2022-10-21T21:53:39.666Z,66.80
2022-10-21T21:58:42.477Z,66.66
2022-10-21T22:03:49.071Z,67.09
2022-10-21T22:08:52.662Z,66.89
2022-10-21T22:13:55.369Z,66.93
2022-10-21T22:19:02.180Z,67.09
2022-10-21T22:24:06.022Z,67.13
2022-10-21T22:29:08.639Z,66.99
2022-10-21T22:34:12.650Z,66.88
2022-10-21T22:39:15.392Z,67.14
2022-10-21T22:44:17.986Z,67.13
2022-10-21T22:49:21.995Z,66.94
2022-10-21T22:54:47.892Z,66.98
2022-10-21T22:59:52.061Z,67.20
2022-10-21T23:04:57.212Z,67.08
2022-10-21T23:10:01.159Z,67.10
2022-10-21T23:15:04.412Z,67.08
2022-10-21T23:20:09.827Z,67.10
2022-10-21T23:25:12.418Z,67.25
2022-10-21T23:30:15.094Z,67.45
2022-10-21T23:35:19.609Z,67.44
2022-10-21T23:40:22.237Z,67.33
2022-10-21T23:45:24.881Z,67.45
2022-10-21T23:50:29.446Z,67.65
